Time;durP1;ratioP1;P1;durP2;ratioP2;P2;SDS_P1;SDS_P2;PMS_P1;PMS_P2;Temp;Humidity;BMP_temperature;BMP_pressure;BME280_temperature;BME280_humidity;BME280_pressure;Samples;Min_cycle;Max_cycle;Signal;HPM_P1;HPM_P2
2022/01/24 00:00:15;;;;;;;11.50;7.45;;;21.20;58.50;;;;;;5028765;28;20875;-50
2022/01/24 00:02:47;;;;;;;20.58;11.45;;;21.20;58.50;;;;;;5028986;28;20196;-48
2022/01/24 00:05:17;;;;;;;22.23;13.20;;;21.20;58.60;;;;;;5030213;28;20267;-45
2022/01/24 00:07:48;;;;;;;21.67;13.50;;;21.20;58.60;;;;;;5030531;28;20230;-42
2022/01/24 00:10:22;;;;;;;17.25;12.00;;;21.20;58.50;;;;;;5031230;28;20238;-46
2022/01/24 00:13:14;;;;;;;19.30;13.43;;;21.20;58.60;;;;;;5030439;28;20231;-55
2022/01/24 00:26:40;;;;;;;22.58;15.63;;;21.30;58.50;;;;;;5028097;28;20211;-43
2022/01/24 00:26:57;;;;;;;29.23;19.17;;;21.30;58.60;;;;;;5021498;28;20247;-45
2022/01/24 00:29:30;;;;;;;31.27;21.48;;;21.30;58.50;;;;;;5021891;28;20270;-50
2022/01/24 00:32:00;;;;;;;33.17;22.10;;;21.30;58.70;;;;;;5029393;28;20200;-45
2022/01/24 00:34:32;;;;;;;41.97;28.63;;;21.30;58.70;;;;;;5015948;28;20669;-50
2022/01/24 00:37:02;;;;;;;36.38;26.20;;;21.40;58.80;;;;;;5030305;28;20225;-42
2022/01/24 00:39:33;;;;;;;34.72;26.25;;;21.40;58.80;;;;;;5029808;28;20200;-45
2022/01/24 00:42:17;;;;;;;38.53;27.17;;;21.40;58.90;;;;;;5028026;28;20254;-44
2022/01/24 00:45:04;;;;;;;41.08;28.25;;;21.40;58.90;;;;;;5029578;28;20239;-44
2022/01/24 00:47:50;;;;;;;42.72;28.65;;;21.40;58.80;;;;;;5028154;28;20223;-46
2022/01/24 00:53:18;;;;;;;43.83;29.35;;;21.50;58.80;;;;;;5016077;28;20204;-48
2022/01/24 00:55:52;;;;;;;38.33;28.10;;;21.50;58.80;;;;;;5018914;28;20246;-44
2022/01/24 00:58:22;;;;;;;43.97;30.35;;;21.50;58.80;;;;;;5029691;28;20279;-44
2022/01/24 01:00:55;;;;;;;46.30;29.60;;;21.50;58.90;;;;;;5030656;28;20196;-48
2022/01/24 01:03:25;;;;;;;43.53;28.60;;;21.50;58.80;;;;;;5029184;28;20195;-41
2022/01/24 01:06:06;;;;;;;44.45;28.35;;;21.50;58.70;;;;;;5027400;28;20727;-48
2022/01/24 01:19:47;;;;;;;42.25;27.27;;;21.60;58.60;;;;;;5027980;28;20282;-53
2022/01/24 01:22:17;;;;;;;38.83;27.67;;;21.60;58.70;;;;;;5029145;28;20254;-49
2022/01/24 01:24:52;;;;;;;39.38;26.75;;;21.70;58.90;;;;;;5014228;28;20218;-45
2022/01/24 01:27:31;;;;;;;36.05;25.00;;;21.70;58.90;;;;;;5028503;28;20224;-47
2022/01/24 01:30:06;;;;;;;39.95;29.08;;;21.70;58.90;;;;;;5028676;28;20769;-46
2022/01/24 01:32:54;;;;;;;35.15;25.98;;;21.70;59.00;;;;;;5028427;28;20286;-50
2022/01/24 01:35:40;;;;;;;35.22;25.02;;;21.70;59.00;;;;;;5027151;28;20212;-58
2022/01/24 01:38:38;;;;;;;38.17;27.00;;;21.70;59.00;;;;;;5028319;28;20250;-44
2022/01/24 01:52:36;;;;;;;40.33;30.25;;;21.80;59.00;;;;;;5018353;28;20289;-57
2022/01/24 01:55:15;;;;;;;40.67;30.42;;;21.80;58.90;;;;;;5027527;28;20571;-51
2022/01/24 01:57:46;;;;;;;41.83;31.30;;;21.80;58.90;;;;;;5014662;28;20350;-52
2022/01/24 02:00:17;;;;;;;39.08;30.50;;;21.90;58.80;;;;;;5011350;28;20204;-51
2022/01/24 02:02:48;;;;;;;39.63;30.73;;;21.90;58.70;;;;;;5029224;28;20193;-51
2022/01/24 02:05:21;;;;;;;44.25;35.88;;;21.90;58.70;;;;;;5027708;28;20224;-52
2022/01/24 02:07:53;;;;;;;46.58;37.58;;;21.90;58.70;;;;;;5026488;28;20743;-41
2022/01/24 02:10:26;;;;;;;47.70;38.00;;;21.90;58.70;;;;;;5024198;28;20207;-46
2022/01/24 02:12:57;;;;;;;48.83;39.40;;;22.00;58.70;;;;;;5025895;28;20207;-44
2022/01/24 02:15:37;;;;;;;49.55;40.45;;;22.00;58.70;;;;;;5013187;28;20220;-43
2022/01/24 02:18:14;;;;;;;46.33;37.10;;;22.00;58.70;;;;;;5028413;28;20204;-48
2022/01/24 02:21:08;;;;;;;47.58;35.85;;;22.00;58.70;;;;;;5028154;28;20195;-44
2022/01/24 02:23:43;;;;;;;42.50;34.08;;;22.10;58.70;;;;;;5028004;28;20202;-48
2022/01/24 02:26:17;;;;;;;37.00;29.38;;;22.10;58.60;;;;;;5026999;28;20749;-49
2022/01/24 02:28:59;;;;;;;35.15;28.85;;;22.10;58.70;;;;;;5027843;28;20228;-45
2022/01/24 02:31:42;;;;;;;35.05;26.40;;;22.10;58.70;;;;;;5020051;28;20599;-51
2022/01/24 02:34:28;;;;;;;31.65;25.25;;;22.10;58.60;;;;;;5014410;28;20236;-50
2022/01/24 02:36:59;;;;;;;31.27;25.08;;;22.10;58.60;;;;;;5014792;28;20197;-46
2022/01/24 02:53:29;;;;;;;25.27;21.50;;;22.20;58.30;;;;;;5027481;28;20202;-50
2022/01/24 02:56:02;;;;;;;25.70;19.75;;;22.30;58.30;;;;;;5026847;28;20207;-43
2022/01/24 02:58:32;;;;;;;24.10;20.02;;;22.30;58.30;;;;;;5026744;28;20668;-46
2022/01/24 03:01:06;;;;;;;25.98;20.48;;;22.30;58.30;;;;;;5027587;28;20200;-41
2022/01/24 03:03:37;;;;;;;24.48;18.50;;;22.30;58.30;;;;;;5024135;28;20208;-43
2022/01/24 03:06:08;;;;;;;24.08;18.25;;;22.30;58.30;;;;;;5014081;28;20699;-47
2022/01/24 03:08:40;;;;;;;24.10;17.60;;;22.30;58.20;;;;;;5012811;28;20216;-44
2022/01/24 03:11:13;;;;;;;23.60;17.60;;;22.30;58.20;;;;;;5027382;28;20220;-41
2022/01/24 03:13:43;;;;;;;23.83;17.20;;;22.30;58.20;;;;;;5027392;28;20204;-42
2022/01/24 03:16:14;;;;;;;23.80;17.38;;;22.30;58.20;;;;;;5025442;28;20244;-44
2022/01/24 03:18:44;;;;;;;22.92;15.38;;;22.40;58.20;;;;;;5026697;28;20200;-54
2022/01/24 03:21:19;;;;;;;19.77;15.05;;;22.40;58.20;;;;;;5024875;28;20260;-45
2022/01/24 03:23:49;;;;;;;19.33;15.40;;;22.40;58.20;;;;;;5014279;28;20239;-44
2022/01/24 03:26:22;;;;;;;21.67;15.75;;;22.40;58.20;;;;;;5026237;28;20258;-40
2022/01/24 03:28:52;;;;;;;21.02;15.68;;;22.40;58.20;;;;;;5027159;28;20349;-43
2022/01/24 03:31:23;;;;;;;17.65;14.07;;;22.40;58.20;;;;;;5025309;28;20250;-51
2022/01/24 03:33:53;;;;;;;18.65;13.55;;;22.40;58.10;;;;;;5026324;28;20204;-49
2022/01/24 03:36:24;;;;;;;20.30;14.38;;;22.50;58.10;;;;;;5020579;28;20262;-45
2022/01/24 03:38:54;;;;;;;19.00;14.35;;;22.50;58.20;;;;;;5014899;28;20265;-50
2022/01/24 03:41:27;;;;;;;19.55;12.88;;;22.50;58.10;;;;;;5013511;28;20660;-41
2022/01/24 03:44:03;;;;;;;18.67;13.02;;;22.50;58.30;;;;;;5026701;28;20205;-44
2022/01/24 03:46:47;;;;;;;20.25;12.93;;;22.50;58.20;;;;;;5012089;28;20286;-50
2022/01/24 03:52:07;;;;;;;17.42;12.50;;;22.50;58.20;;;;;;5027578;28;20204;-51
2022/01/24 03:54:38;;;;;;;20.08;11.77;;;22.60;58.20;;;;;;5021807;28;20279;-45
2022/01/24 03:57:11;;;;;;;19.38;11.73;;;22.60;58.30;;;;;;5024739;28;20254;-40
2022/01/24 03:59:42;;;;;;;15.90;11.02;;;22.50;58.20;;;;;;5029164;28;20204;-42
2022/01/24 04:02:13;;;;;;;17.95;11.65;;;22.60;58.30;;;;;;5015174;28;20196;-53
2022/01/24 04:04:44;;;;;;;16.75;10.68;;;22.60;58.20;;;;;;5014247;28;20224;-49
2022/01/24 04:07:15;;;;;;;14.88;10.25;;;22.60;58.20;;;;;;5029522;28;20193;-51
2022/01/24 04:09:45;;;;;;;17.27;10.68;;;22.60;58.20;;;;;;5028937;28;20247;-43
2022/01/24 04:12:20;;;;;;;16.70;10.48;;;22.60;58.10;;;;;;5029570;28;20620;-46
2022/01/24 04:15:09;;;;;;;15.65;10.10;;;22.60;58.10;;;;;;5025528;28;20224;-44
2022/01/24 04:17:43;;;;;;;15.95;9.90;;;22.70;58.10;;;;;;5016541;28;20201;-45
2022/01/24 04:23:01;;;;;;;16.70;8.95;;;22.60;58.00;;;;;;5030896;28;20207;-46
2022/01/24 04:25:32;;;;;;;14.38;8.93;;;22.70;58.00;;;;;;5030956;28;20656;-45
2022/01/24 04:28:04;;;;;;;15.77;9.40;;;22.70;58.00;;;;;;5014164;28;21021;-43
2022/01/24 04:30:44;;;;;;;15.63;9.60;;;22.70;58.00;;;;;;5017764;28;20719;-50
2022/01/24 04:33:14;;;;;;;15.55;9.77;;;22.70;57.90;;;;;;5017707;28;20220;-49
2022/01/24 04:35:45;;;;;;;15.13;9.40;;;22.70;57.90;;;;;;5016451;28;20225;-45
2022/01/24 04:38:15;;;;;;;13.95;8.45;;;22.70;58.00;;;;;;5018782;28;20196;-42
2022/01/24 04:40:46;;;;;;;15.18;9.23;;;22.80;58.00;;;;;;5030536;28;20196;-41
2022/01/24 04:43:31;;;;;;;16.45;8.55;;;22.70;57.90;;;;;;5030271;28;20207;-50
2022/01/24 04:46:12;;;;;;;14.52;8.68;;;22.80;58.00;;;;;;5013690;28;20221;-41
2022/01/24 04:51:51;;;;;;;15.43;8.35;;;22.80;58.00;;;;;;5016336;28;20223;-40
2022/01/24 04:54:39;;;;;;;13.13;8.02;;;22.80;58.00;;;;;;5028574;28;20227;-41
2022/01/24 04:57:11;;;;;;;14.68;7.70;;;22.80;58.00;;;;;;5028710;28;20193;-44
2022/01/24 04:59:45;;;;;;;13.05;7.38;;;22.80;58.00;;;;;;5028674;28;20204;-50
2022/01/24 05:02:16;;;;;;;13.63;8.07;;;22.80;58.10;;;;;;5028403;28;20200;-44
2022/01/24 05:04:47;;;;;;;11.70;7.47;;;22.80;58.00;;;;;;5028150;28;20275;-46
2022/01/24 05:07:18;;;;;;;12.93;7.55;;;22.80;57.90;;;;;;5012948;28;20223;-40
2022/01/24 05:09:54;;;;;;;11.15;7.65;;;22.80;57.90;;;;;;5012139;28;20294;-54
2022/01/24 05:12:34;;;;;;;12.32;7.20;;;22.80;57.90;;;;;;5027551;28;20188;-50
2022/01/24 05:23:30;;;;;;;12.20;6.80;;;22.80;57.80;;;;;;5022392;28;20222;-43
2022/01/24 05:26:02;;;;;;;14.10;7.25;;;22.90;57.90;;;;;;5026999;28;20278;-49
2022/01/24 05:28:33;;;;;;;10.35;6.75;;;22.90;57.80;;;;;;5026936;28;20232;-50
2022/01/24 05:31:06;;;;;;;12.80;8.10;;;22.90;57.80;;;;;;5029968;28;20191;-49
2022/01/24 05:33:37;;;;;;;10.95;7.32;;;22.90;57.80;;;;;;5029595;28;20298;-41
2022/01/24 05:36:07;;;;;;;9.70;6.68;;;22.90;57.90;;;;;;5027789;28;20224;-49
2022/01/24 05:38:39;;;;;;;9.73;5.95;;;22.90;57.80;;;;;;5027936;28;20196;-53
2022/01/24 05:41:10;;;;;;;10.35;6.78;;;22.90;57.90;;;;;;5027506;28;20192;-44
2022/01/24 05:43:40;;;;;;;10.27;5.97;;;22.90;58.00;;;;;;5024935;28;20212;-50
2022/01/24 05:46:12;;;;;;;10.80;6.05;;;22.90;57.90;;;;;;5027658;28;20262;-43
2022/01/24 05:48:43;;;;;;;10.15;6.50;;;22.90;57.90;;;;;;5012838;28;20228;-42
2022/01/24 05:51:14;;;;;;;10.27;6.28;;;22.90;57.90;;;;;;5023697;28;20647;-49
2022/01/24 05:53:44;;;;;;;8.88;5.82;;;22.90;58.00;;;;;;5027165;28;20612;-53
2022/01/24 05:56:15;;;;;;;10.20;6.20;;;22.90;57.90;;;;;;5027934;28;20216;-44
2022/01/24 05:58:45;;;;;;;12.05;5.72;;;22.90;57.80;;;;;;5023344;28;20208;-40
2022/01/24 06:01:18;;;;;;;10.50;6.00;;;22.90;58.00;;;;;;5015934;28;20196;-49
2022/01/24 06:03:48;;;;;;;9.23;5.72;;;23.00;58.00;;;;;;5027489;28;20196;-44
2022/01/24 06:06:19;;;;;;;10.40;5.68;;;23.00;57.90;;;;;;5027041;28;20258;-46
2022/01/24 06:08:49;;;;;;;10.10;5.47;;;23.00;57.90;;;;;;5026988;28;20290;-50
2022/01/24 06:11:23;;;;;;;9.88;5.53;;;23.00;57.90;;;;;;5027808;28;20628;-49
2022/01/24 06:13:54;;;;;;;8.43;5.28;;;23.00;57.90;;;;;;5025886;28;20204;-41
2022/01/24 06:16:26;;;;;;;8.27;4.97;;;23.00;57.80;;;;;;5026761;28;20246;-40
2022/01/24 06:18:57;;;;;;;8.18;5.45;;;23.00;57.80;;;;;;5027846;28;20196;-43
2022/01/24 06:21:27;;;;;;;8.32;4.70;;;23.00;57.80;;;;;;5013090;28;20333;-45
2022/01/24 06:23:58;;;;;;;8.48;5.18;;;23.00;57.70;;;;;;5028975;28;20769;-41
2022/01/24 06:26:29;;;;;;;10.40;5.30;;;23.00;57.60;;;;;;5026229;28;20261;-54
2022/01/24 06:28:59;;;;;;;7.43;5.75;;;23.00;57.60;;;;;;5025321;28;20224;-46
2022/01/24 06:31:32;;;;;;;10.63;5.43;;;23.00;57.60;;;;;;5028056;28;20200;-50
2022/01/24 06:34:03;;;;;;;8.50;5.07;;;23.00;57.70;;;;;;5027304;28;20201;-39
2022/01/24 06:36:33;;;;;;;11.30;3.72;;;23.00;57.70;;;;;;5027938;28;20208;-37
2022/01/24 06:39:05;;;;;;;17.90;6.90;;;23.00;58.30;;;;;;5028207;28;20242;-43
2022/01/24 06:41:36;;;;;;;33.83;20.52;;;23.00;59.40;;;;;;5027623;28;20192;-38
2022/01/24 06:44:07;;;;;;;17.58;7.93;;;22.90;60.60;;;;;;5015857;28;20270;-49
2022/01/24 06:46:39;;;;;;;14.77;6.82;;;22.80;61.10;;;;;;5022516;28;20204;-42
2022/01/24 06:49:10;;;;;;;18.27;6.50;;;22.80;60.80;;;;;;5026209;28;20753;-45
2022/01/24 06:51:41;;;;;;;15.52;6.93;;;22.70;60.50;;;;;;5025998;28;20196;-47
2022/01/24 06:54:11;;;;;;;16.65;8.48;;;22.80;60.60;;;;;;5010881;28;20242;-45
2022/01/24 06:56:42;;;;;;;13.73;7.78;;;22.70;60.50;;;;;;5027276;28;20197;-56
2022/01/24 06:59:12;;;;;;;17.23;9.15;;;22.70;60.20;;;;;;5025485;28;20211;-53
2022/01/24 07:01:45;;;;;;;19.80;8.55;;;22.80;60.30;;;;;;5041367;28;20542;-57
2022/01/24 07:04:15;;;;;;;19.63;8.20;;;22.80;60.60;;;;;;5040843;28;20207;-56
2022/01/24 07:06:46;;;;;;;21.55;9.65;;;22.80;60.60;;;;;;5044020;28;20196;-42
2022/01/24 07:09:16;;;;;;;22.10;11.07;;;22.80;60.50;;;;;;5043522;28;20234;-40
2022/01/24 07:11:48;;;;;;;22.10;10.25;;;22.80;60.80;;;;;;5045211;28;20241;-48
2022/01/24 07:14:19;;;;;;;28.05;11.35;;;22.80;60.80;;;;;;5042669;28;20215;-41
2022/01/24 07:19:35;;;;;;;18.42;10.27;;;22.80;61.50;;;;;;5038113;28;20284;-42
2022/01/24 07:22:07;;;;;;;22.80;10.40;;;22.80;60.90;;;;;;5041184;28;20208;-40
2022/01/24 07:24:39;;;;;;;18.13;9.38;;;22.80;61.00;;;;;;5039986;28;20760;-52
2022/01/24 07:27:10;;;;;;;16.08;10.48;;;22.80;61.00;;;;;;5045551;28;20204;-57
2022/01/24 07:29:40;;;;;;;18.45;9.88;;;22.90;61.00;;;;;;5049095;28;20227;-55
2022/01/24 07:32:13;;;;;;;17.85;9.55;;;22.90;61.10;;;;;;5047802;28;20192;-58
2022/01/24 07:34:44;;;;;;;16.42;9.93;;;22.90;61.70;;;;;;5047042;28;20215;-50
2022/01/24 07:37:15;;;;;;;17.50;8.88;;;22.90;61.00;;;;;;5042396;28;20258;-54
2022/01/24 07:39:46;;;;;;;18.23;9.93;;;22.90;61.00;;;;;;5045120;28;20191;-58
2022/01/24 07:42:27;;;;;;;17.10;8.93;;;22.90;60.90;;;;;;5045162;28;20257;-51
2022/01/24 07:44:57;;;;;;;20.75;9.55;;;22.90;60.80;;;;;;5046767;28;20305;-56
2022/01/24 07:47:30;;;;;;;17.80;10.15;;;22.90;60.70;;;;;;5048565;28;20241;-55
2022/01/24 07:50:00;;;;;;;17.95;9.88;;;22.90;60.70;;;;;;5045859;28;20251;-47
2022/01/24 07:52:31;;;;;;;15.55;9.27;;;22.90;60.70;;;;;;5045701;28;20257;-43
2022/01/24 07:55:01;;;;;;;14.73;9.30;;;22.90;60.50;;;;;;5045327;28;20292;-40
2022/01/24 07:57:32;;;;;;;17.05;9.82;;;22.90;60.20;;;;;;5046218;28;20245;-40
2022/01/24 08:00:03;;;;;;;14.05;9.15;;;22.90;60.20;;;;;;5045994;28;20249;-41
2022/01/24 08:02:35;;;;;;;14.80;8.93;;;22.90;60.10;;;;;;5046638;28;20239;-45
2022/01/24 08:05:06;;;;;;;15.30;9.68;;;22.90;60.80;;;;;;5047659;28;20243;-42
2022/01/24 08:07:36;;;;;;;16.33;9.85;;;22.90;60.10;;;;;;5046771;28;20187;-40
2022/01/24 08:10:08;;;;;;;14.05;9.32;;;22.90;60.40;;;;;;5047007;28;20289;-41
2022/01/24 08:12:42;;;;;;;13.60;8.50;;;22.90;60.40;;;;;;5045942;28;20207;-40
2022/01/24 08:15:14;;;;;;;16.80;9.10;;;23.00;60.30;;;;;;5047185;28;20219;-42
2022/01/24 08:17:47;;;;;;;15.88;9.90;;;22.90;60.20;;;;;;5047370;28;20671;-41
2022/01/24 08:20:18;;;;;;;13.30;8.70;;;22.90;60.10;;;;;;5047518;28;20296;-40
2022/01/24 08:22:49;;;;;;;13.75;8.60;;;22.90;60.10;;;;;;5046966;28;20639;-45
2022/01/24 08:25:20;;;;;;;15.48;8.90;;;23.00;60.10;;;;;;5046698;28;20273;-45
2022/01/24 08:27:51;;;;;;;15.68;8.35;;;22.90;59.90;;;;;;5043464;28;20260;-41
2022/01/24 08:30:24;;;;;;;15.35;8.57;;;23.00;59.90;;;;;;5043588;28;20243;-40
2022/01/24 08:32:56;;;;;;;14.23;8.95;;;22.90;59.70;;;;;;5044050;28;20207;-42
2022/01/24 08:35:27;;;;;;;13.60;8.60;;;22.90;59.80;;;;;;5044806;28;20223;-50
2022/01/24 08:37:57;;;;;;;12.13;7.47;;;22.90;59.60;;;;;;5046885;28;20207;-40
2022/01/24 08:40:30;;;;;;;10.35;7.93;;;22.90;59.50;;;;;;5045910;28;20627;-43
2022/01/24 08:43:04;;;;;;;11.60;8.07;;;22.90;59.40;;;;;;5045614;28;20686;-41
2022/01/24 08:45:48;;;;;;;11.70;8.07;;;22.90;59.20;;;;;;5043298;28;20219;-41
2022/01/24 08:48:23;;;;;;;12.02;8.10;;;22.90;59.20;;;;;;5045362;28;20199;-40
2022/01/24 08:50:55;;;;;;;12.25;8.05;;;22.90;59.00;;;;;;5044902;28;20304;-41
2022/01/24 08:53:29;;;;;;;12.18;7.90;;;22.90;58.90;;;;;;5045401;28;20258;-41
2022/01/24 08:56:00;;;;;;;12.88;8.20;;;22.90;58.90;;;;;;5046630;28;20744;-51
2022/01/24 08:58:31;;;;;;;12.38;7.75;;;22.90;58.90;;;;;;5045676;28;20199;-41
2022/01/24 09:01:02;;;;;;;9.98;7.45;;;22.90;58.80;;;;;;5045605;28;20208;-47
2022/01/24 09:03:39;;;;;;;10.95;7.65;;;22.90;58.80;;;;;;5044866;28;20261;-40
2022/01/24 09:06:11;;;;;;;12.05;7.72;;;22.90;58.80;;;;;;5044074;28;20313;-40
2022/01/24 09:08:41;;;;;;;12.07;7.78;;;22.80;58.60;;;;;;5045485;28;20204;-56
2022/01/24 09:11:12;;;;;;;11.27;7.85;;;22.90;58.40;;;;;;5043327;28;20208;-54
2022/01/24 09:13:42;;;;;;;11.18;7.45;;;22.80;58.50;;;;;;5045787;28;20203;-41
2022/01/24 09:16:13;;;;;;;11.88;7.38;;;22.80;58.60;;;;;;5047574;28;20212;-51
2022/01/24 09:18:45;;;;;;;10.57;7.10;;;22.80;58.30;;;;;;5045121;28;20290;-47
2022/01/24 09:21:16;;;;;;;10.55;7.45;;;22.80;58.40;;;;;;5041921;28;20199;-41
2022/01/24 09:23:47;;;;;;;12.00;7.45;;;22.80;58.40;;;;;;5044865;28;20249;-40
2022/01/24 09:26:18;;;;;;;9.77;6.90;;;22.80;58.20;;;;;;5042578;28;20276;-57
2022/01/24 09:28:49;;;;;;;11.00;7.35;;;22.80;58.20;;;;;;5041328;28;20551;-48
2022/01/24 09:31:21;;;;;;;9.43;6.72;;;22.80;58.10;;;;;;5045651;28;20649;-46
2022/01/24 09:33:54;;;;;;;9.25;6.70;;;22.80;58.00;;;;;;5047182;28;20242;-50
2022/01/24 09:36:24;;;;;;;9.43;6.75;;;22.80;58.00;;;;;;5043845;28;20246;-54
2022/01/24 09:38:56;;;;;;;10.80;6.78;;;22.80;58.00;;;;;;5043108;28;20720;-50
2022/01/24 09:41:27;;;;;;;9.05;6.47;;;22.80;58.00;;;;;;5039531;28;20243;-50
2022/01/24 09:43:57;;;;;;;10.55;7.40;;;22.70;57.90;;;;;;5044981;28;20861;-47
2022/01/24 09:46:28;;;;;;;11.55;6.70;;;22.70;57.90;;;;;;5037468;28;20201;-58
2022/01/24 09:49:02;;;;;;;9.13;6.82;;;22.70;57.90;;;;;;5029473;28;20200;-57
2022/01/24 09:51:33;;;;;;;9.50;6.80;;;22.60;57.80;;;;;;5021857;28;20193;-49
2022/01/24 09:54:04;;;;;;;13.18;6.72;;;22.70;57.80;;;;;;5026319;28;20683;-55
2022/01/24 09:56:36;;;;;;;15.30;6.95;;;22.70;57.90;;;;;;5026495;28;20200;-52
2022/01/24 09:59:07;;;;;;;12.98;6.90;;;22.60;57.80;;;;;;5027553;28;20652;-56
2022/01/24 10:01:37;;;;;;;10.98;6.47;;;22.60;57.80;;;;;;5019406;28;20204;-52
2022/01/24 10:04:13;;;;;;;10.70;6.57;;;22.60;57.80;;;;;;5020112;28;20196;-51
2022/01/24 10:06:58;;;;;;;10.55;6.53;;;22.60;57.80;;;;;;5018670;28;20265;-49
2022/01/24 10:09:37;;;;;;;8.40;6.25;;;22.60;57.70;;;;;;5018217;28;20224;-53
2022/01/24 10:12:22;;;;;;;10.75;6.20;;;22.60;57.70;;;;;;5020096;28;20541;-54
2022/01/24 10:17:43;;;;;;;9.57;6.53;;;22.50;57.60;;;;;;5019032;28;20215;-56
2022/01/24 10:20:24;;;;;;;10.27;6.85;;;22.50;57.70;;;;;;5019856;28;20254;-56
2022/01/24 10:23:26;;;;;;;9.05;6.75;;;22.50;57.70;;;;;;5020118;28;20250;-52
2022/01/24 10:26:02;;;;;;;8.60;6.38;;;22.50;57.70;;;;;;4946912;28;20218;-53
2022/01/24 10:28:36;;;;;;;8.82;6.55;;;22.50;57.60;;;;;;5015323;28;20204;-56
2022/01/24 10:31:10;;;;;;;7.15;5.63;;;22.40;57.70;;;;;;5028153;28;20564;-54
2022/01/24 10:33:55;;;;;;;10.25;6.00;;;22.40;57.70;;;;;;5016667;28;20594;-55
2022/01/24 10:36:39;;;;;;;9.55;6.70;;;22.40;57.70;;;;;;5027491;28;20196;-57
2022/01/24 10:39:19;;;;;;;9.80;6.65;;;22.40;57.60;;;;;;5017811;28;20196;-58
2022/01/24 10:42:26;;;;;;;9.85;6.50;;;22.30;57.60;;;;;;5027086;28;20199;-57
2022/01/24 10:44:57;;;;;;;7.35;5.78;;;22.30;57.50;;;;;;5012638;28;20220;-57
2022/01/24 10:47:30;;;;;;;8.57;6.22;;;22.30;57.50;;;;;;5026443;28;20200;-56
2022/01/24 10:50:01;;;;;;;9.55;6.65;;;22.30;57.50;;;;;;5026098;28;20227;-57
2022/01/24 10:52:35;;;;;;;9.45;6.50;;;22.30;57.50;;;;;;5025848;28;20200;-56
2022/01/24 10:55:17;;;;;;;7.85;5.72;;;22.30;57.50;;;;;;5027469;28;20213;-57
2022/01/24 10:57:51;;;;;;;7.72;6.20;;;22.20;57.40;;;;;;5015466;28;20258;-51
2022/01/24 11:00:24;;;;;;;9.75;6.28;;;22.20;57.40;;;;;;5013062;28;20258;-58
2022/01/24 11:02:56;;;;;;;9.38;6.35;;;22.20;57.50;;;;;;5032153;28;20200;-54
2022/01/24 11:05:28;;;;;;;7.78;5.80;;;22.20;57.50;;;;;;5031426;28;20225;-55
2022/01/24 11:08:01;;;;;;;6.60;5.00;;;22.20;57.50;;;;;;5031477;28;20265;-52
2022/01/24 11:10:34;;;;;;;6.93;5.82;;;22.10;57.40;;;;;;5031149;28;20289;-53
2022/01/24 11:13:05;;;;;;;8.55;6.13;;;22.10;57.40;;;;;;5028775;28;20224;-51
2022/01/24 11:15:38;;;;;;;7.57;6.05;;;22.10;57.50;;;;;;5030779;28;20262;-56
2022/01/24 11:18:09;;;;;;;7.57;5.75;;;22.10;57.40;;;;;;5032054;28;20200;-57
2022/01/24 11:20:44;;;;;;;7.60;6.00;;;22.10;57.40;;;;;;5031934;28;20204;-53
2022/01/24 11:23:21;;;;;;;8.88;5.97;;;22.00;57.30;;;;;;5029943;28;20200;-53
2022/01/24 11:25:53;;;;;;;9.45;5.72;;;22.00;57.40;;;;;;5030310;28;20228;-43
2022/01/24 11:28:25;;;;;;;6.32;5.13;;;22.00;57.30;;;;;;5030530;28;20613;-54
2022/01/24 11:31:05;;;;;;;7.53;5.95;;;22.00;57.30;;;;;;5029191;28;20227;-52
2022/01/24 11:33:39;;;;;;;7.90;6.38;;;22.00;57.30;;;;;;5017595;28;20657;-48
2022/01/24 11:36:11;;;;;;;7.80;5.53;;;22.00;57.30;;;;;;5017256;28;20314;-47
2022/01/24 11:38:44;;;;;;;6.93;5.18;;;22.00;57.20;;;;;;5040872;23;20722;-42
2022/01/24 11:41:22;;;;;;;8.65;5.75;;;21.90;57.20;;;;;;5045824;28;20200;-47
2022/01/24 11:43:54;;;;;;;6.35;5.47;;;21.90;57.20;;;;;;5030170;28;20287;-54
2022/01/24 11:46:43;;;;;;;7.13;5.15;;;21.90;57.20;;;;;;5011403;28;20603;-45
2022/01/24 11:49:15;;;;;;;7.03;5.30;;;21.90;57.20;;;;;;5012021;28;20204;-49
2022/01/24 11:51:48;;;;;;;6.45;5.03;;;21.90;57.20;;;;;;5008237;28;20276;-44
2022/01/24 11:54:50;;;;;;;6.57;5.28;;;21.90;57.20;;;;;;4999900;28;20228;-49
2022/01/24 11:57:30;;;;;;;7.32;5.65;;;21.80;57.20;;;;;;5014649;28;20205;-45
2022/01/24 12:00:26;;;;;;;6.80;5.35;;;21.80;57.10;;;;;;5024479;28;20479;-45
2022/01/24 12:02:57;;;;;;;6.03;5.25;;;21.80;57.10;;;;;;5004938;28;20251;-52
2022/01/24 12:05:29;;;;;;;5.70;5.00;;;21.80;57.10;;;;;;5010324;28;20217;-56
2022/01/24 12:08:03;;;;;;;6.97;5.53;;;21.70;57.10;;;;;;5010185;28;20606;-45
2022/01/24 12:10:44;;;;;;;5.70;4.43;;;21.70;57.10;;;;;;4999897;28;20229;-45
2022/01/24 12:13:20;;;;;;;7.35;5.28;;;21.70;57.10;;;;;;4998001;28;20209;-45
2022/01/24 12:16:04;;;;;;;8.15;5.28;;;21.70;57.10;;;;;;5005739;28;20224;-54
2022/01/24 12:19:03;;;;;;;6.38;5.03;;;21.70;57.10;;;;;;5010388;28;20197;-44
2022/01/24 12:21:38;;;;;;;5.75;4.72;;;21.60;57.00;;;;;;5006748;28;20251;-54
2022/01/24 12:24:10;;;;;;;6.28;4.82;;;21.70;57.10;;;;;;5010276;28;20199;-53
2022/01/24 12:26:44;;;;;;;6.05;4.57;;;21.60;57.00;;;;;;5010374;28;20204;-42
2022/01/24 12:29:17;;;;;;;6.32;5.00;;;21.60;57.00;;;;;;5025914;28;20203;-49
2022/01/24 12:31:50;;;;;;;4.85;4.35;;;21.60;57.10;;;;;;5011658;28;20221;-51
2022/01/24 12:34:24;;;;;;;6.93;4.97;;;21.60;57.10;;;;;;4997787;28;20218;-56
2022/01/24 12:37:13;;;;;;;6.38;4.90;;;21.50;57.00;;;;;;4999463;28;20266;-45
2022/01/24 12:39:57;;;;;;;5.88;4.40;;;21.50;57.00;;;;;;5006834;28;20209;-44
2022/01/24 12:42:49;;;;;;;7.32;5.15;;;21.50;57.00;;;;;;5005736;28;20240;-47
2022/01/24 12:48:10;;;;;;;5.45;4.40;;;21.50;56.90;;;;;;5005235;28;20251;-52
2022/01/24 12:50:45;;;;;;;5.38;4.38;;;21.50;56.90;;;;;;5009128;28;20227;-44
2022/01/24 12:53:17;;;;;;;7.75;4.80;;;21.50;56.90;;;;;;4995495;28;20200;-45
2022/01/24 12:55:58;;;;;;;5.88;4.50;;;21.40;56.90;;;;;;5010289;28;20248;-45
2022/01/24 12:58:36;;;;;;;5.03;4.10;;;21.40;56.90;;;;;;5010884;28;20204;-51
2022/01/24 13:01:21;;;;;;;5.28;3.92;;;21.40;56.90;;;;;;4997083;28;20264;-42
2022/01/24 13:03:55;;;;;;;5.60;4.47;;;21.40;56.90;;;;;;5004624;28;20267;-46
2022/01/24 13:06:26;;;;;;;5.03;3.97;;;21.40;56.90;;;;;;5004578;28;20196;-44
2022/01/24 13:09:01;;;;;;;5.18;4.22;;;21.40;56.90;;;;;;5005889;28;20653;-50
2022/01/24 13:11:33;;;;;;;4.72;4.22;;;21.40;56.90;;;;;;5000115;28;20283;-46
2022/01/24 13:14:11;;;;;;;5.30;4.32;;;21.30;56.80;;;;;;5023605;28;20592;-51
2022/01/24 13:22:31;;;;;;;4.93;3.83;;;21.30;56.80;;;;;;5010149;28;20304;-49
2022/01/24 13:25:14;;;;;;;5.03;4.32;;;21.30;56.80;;;;;;4995335;28;20224;-48
2022/01/24 13:27:47;;;;;;;5.47;4.40;;;21.30;56.80;;;;;;5014389;28;20200;-48
2022/01/24 13:30:24;;;;;;;4.85;3.97;;;21.30;56.80;;;;;;5012658;28;20224;-51
2022/01/24 13:32:56;;;;;;;5.40;4.20;;;21.20;56.80;;;;;;5009296;28;20197;-43
2022/01/24 13:35:30;;;;;;;5.22;4.22;;;21.20;56.80;;;;;;5006822;28;20225;-43
2022/01/24 13:38:02;;;;;;;6.40;3.63;;;21.20;56.80;;;;;;5011433;28;20215;-45
2022/01/24 13:40:38;;;;;;;5.15;3.80;;;21.20;56.80;;;;;;5007344;23;20189;-50
2022/01/24 13:43:11;;;;;;;5.63;3.90;;;21.10;56.70;;;;;;5029263;28;20266;-55
2022/01/24 13:45:45;;;;;;;4.50;3.90;;;21.20;56.80;;;;;;5028859;28;20278;-56
2022/01/24 13:48:25;;;;;;;5.72;4.20;;;21.10;56.70;;;;;;5017901;28;20211;-58
2022/01/24 13:50:57;;;;;;;4.85;3.47;;;21.10;56.70;;;;;;5016428;28;20700;-48
2022/01/24 13:53:39;;;;;;;4.82;3.72;;;21.10;56.70;;;;;;5020368;28;20226;-58
2022/01/24 13:56:24;;;;;;;5.18;4.00;;;21.10;56.70;;;;;;5025980;28;20224;-57
2022/01/24 13:59:07;;;;;;;5.05;3.75;;;21.10;56.70;;;;;;5016122;28;20200;-54
2022/01/24 14:01:51;;;;;;;4.97;3.60;;;21.10;56.70;;;;;;5028439;28;20214;-53
2022/01/24 14:04:39;;;;;;;5.20;4.28;;;21.10;56.70;;;;;;5013395;28;20212;-45
2022/01/24 14:07:11;;;;;;;4.78;3.58;;;21.10;56.70;;;;;;5028815;28;20605;-53
2022/01/24 14:09:46;;;;;;;5.07;4.05;;;21.10;56.70;;;;;;5027631;28;20254;-57
2022/01/24 14:12:19;;;;;;;4.70;3.45;;;21.00;56.70;;;;;;5026817;28;20281;-51
2022/01/24 14:15:00;;;;;;;5.82;3.83;;;21.00;56.70;;;;;;5026996;28;20228;-56
2022/01/24 14:17:44;;;;;;;5.13;3.95;;;21.00;56.70;;;;;;5027440;28;20667;-57
2022/01/24 14:20:18;;;;;;;4.85;3.60;;;21.00;56.70;;;;;;5028005;28;20203;-53
2022/01/24 14:22:51;;;;;;;4.25;3.58;;;21.00;56.70;;;;;;5028065;28;20199;-54
2022/01/24 14:25:23;;;;;;;5.07;3.83;;;21.00;56.70;;;;;;5028718;28;20216;-54
2022/01/24 14:27:55;;;;;;;5.28;4.03;;;21.00;56.80;;;;;;5029263;28;20714;-53
2022/01/24 14:30:34;;;;;;;4.13;3.58;;;20.90;56.80;;;;;;5012392;28;20265;-56
2022/01/24 14:33:15;;;;;;;4.05;3.20;;;20.90;56.80;;;;;;5026433;28;20243;-54